Time;durP1;ratioP1;P1;durP2;ratioP2;P2;SDS_P1;SDS_P2;PMS_P1;PMS_P2;Temp;Humidity;BMP_temperature;BMP_pressure;BME280_temperature;BME280_humidity;BME280_pressure;Samples;Min_cycle;Max_cycle;Signal;HPM_P1;HPM_P2
2021/09/03 00:02:00;;;;;;;9.93;5.43;;;;;;;13.71;100.00;102197.63;6222301;28;20054;-75
2021/09/03 00:05:01;;;;;;;8.77;4.80;;;;;;;13.71;100.00;102197.63;6225480;28;20072;-75
2021/09/03 00:08:03;;;;;;;13.60;5.90;;;;;;;13.66;100.00;102193.47;6226570;28;20053;-75
2021/09/03 00:11:05;;;;;;;9.50;4.63;;;;;;;13.66;100.00;102196.09;6226606;28;20505;-75
2021/09/03 00:14:06;;;;;;;10.05;5.10;;;;;;;13.63;100.00;102189.19;6225881;28;20057;-74
2021/09/03 00:17:09;;;;;;;10.85;5.43;;;;;;;13.62;100.00;102190.09;6225774;28;20544;-74
2021/09/03 00:20:12;;;;;;;11.10;5.60;;;;;;;13.59;100.00;102192.03;6226244;28;20050;-76
2021/09/03 00:23:13;;;;;;;10.43;5.53;;;;;;;13.55;100.00;102191.28;6225707;28;20050;-75
2021/09/03 00:26:15;;;;;;;14.43;6.38;;;;;;;13.51;100.00;102188.84;6225826;28;20053;-74
2021/09/03 00:29:17;;;;;;;8.98;4.80;;;;;;;13.52;100.00;102180.00;6225962;28;20050;-76
2021/09/03 00:32:20;;;;;;;9.43;4.90;;;;;;;13.50;100.00;102179.22;6225791;28;20054;-76
2021/09/03 00:35:21;;;;;;;8.65;5.32;;;;;;;13.47;100.00;102177.56;6225360;28;20046;-74
2021/09/03 00:38:22;;;;;;;13.50;5.63;;;;;;;13.45;100.00;102182.06;6225657;28;20060;-75
2021/09/03 00:41:24;;;;;;;8.85;5.22;;;;;;;13.44;100.00;102189.13;6225403;28;20057;-76
2021/09/03 00:44:25;;;;;;;9.45;4.55;;;;;;;13.40;100.00;102178.75;6225355;28;20060;-76
2021/09/03 00:47:28;;;;;;;11.27;5.05;;;;;;;13.36;100.00;102178.00;6225608;28;20057;-76
2021/09/03 00:50:29;;;;;;;9.60;4.47;;;;;;;13.34;100.00;102176.34;6224996;28;20057;-76
2021/09/03 00:53:31;;;;;;;9.30;4.97;;;;;;;13.35;100.00;102175.41;6225002;28;20069;-76
2021/09/03 00:56:32;;;;;;;9.38;4.85;;;;;;;13.31;100.00;102173.84;6225022;28;20448;-76
2021/09/03 00:59:34;;;;;;;7.57;4.03;;;;;;;13.25;100.00;102172.31;6225160;28;20413;-76
2021/09/03 01:02:37;;;;;;;11.68;5.28;;;;;;;13.28;100.00;102171.34;6224853;28;20065;-76
2021/09/03 01:05:38;;;;;;;8.95;4.63;;;;;;;13.28;100.00;102163.41;6224747;28;20053;-76
2021/09/03 01:08:40;;;;;;;8.13;4.43;;;;;;;13.24;100.00;102165.31;6224769;28;20049;-76
2021/09/03 01:11:41;;;;;;;8.10;4.28;;;;;;;13.21;100.00;102152.19;6224899;28;20061;-76
2021/09/03 01:14:42;;;;;;;8.60;4.45;;;;;;;13.19;100.00;102159.34;6223699;28;20046;-75
2021/09/03 01:17:45;;;;;;;8.63;4.78;;;;;;;13.15;100.00;102158.59;6224783;28;20050;-76
2021/09/03 01:20:47;;;;;;;9.48;4.82;;;;;;;13.12;100.00;102158.72;6224468;28;20054;-76
2021/09/03 01:23:49;;;;;;;9.27;4.88;;;;;;;13.13;100.00;102154.34;6223984;28;20056;-76
2021/09/03 01:26:51;;;;;;;9.30;4.28;;;;;;;13.10;100.00;102152.66;6224319;28;20046;-76
2021/09/03 01:29:52;;;;;;;8.55;4.13;;;;;;;13.01;100.00;102147.75;6224214;28;20053;-76
2021/09/03 01:32:54;;;;;;;5.65;4.18;;;;;;;12.89;100.00;102154.38;6224109;28;20080;-76
2021/09/03 01:35:55;;;;;;;7.38;3.80;;;;;;;12.82;100.00;102150.28;6223532;28;20050;-76
2021/09/03 01:38:58;;;;;;;7.78;4.78;;;;;;;12.83;100.00;102144.09;6224127;28;20057;-76
2021/09/03 01:41:59;;;;;;;7.32;3.95;;;;;;;12.87;100.00;102150.09;6223730;28;20402;-76
2021/09/03 01:45:01;;;;;;;7.40;4.07;;;;;;;12.84;100.00;102148.44;6223870;28;20086;-76
2021/09/03 01:48:02;;;;;;;6.70;3.88;;;;;;;12.87;100.00;102153.59;6223700;28;20064;-76
2021/09/03 01:51:03;;;;;;;8.32;4.10;;;;;;;12.90;100.00;102150.00;6223566;28;20057;-76
2021/09/03 01:54:06;;;;;;;6.57;3.67;;;;;;;12.84;100.00;102148.44;6223377;28;20061;-77
2021/09/03 01:57:07;;;;;;;6.47;4.28;;;;;;;12.69;100.00;102141.16;6223316;28;20390;-76
2021/09/03 02:00:10;;;;;;;8.88;4.60;;;;;;;12.67;100.00;102142.97;6223666;28;20056;-76
2021/09/03 02:03:11;;;;;;;10.27;5.20;;;;;;;12.69;100.00;102141.16;6223241;28;20041;-75
2021/09/03 02:06:12;;;;;;;7.75;3.90;;;;;;;12.73;100.00;102128.72;6223227;28;20050;-76
2021/09/03 02:09:15;;;;;;;9.75;4.22;;;;;;;12.70;100.00;102125.25;6223323;28;20502;-75
2021/09/03 02:12:16;;;;;;;9.18;3.92;;;;;;;12.68;100.00;102119.19;6222800;28;20057;-76
2021/09/03 02:15:17;;;;;;;6.68;3.97;;;;;;;12.68;100.00;102116.56;6222948;28;20057;-76
2021/09/03 02:18:19;;;;;;;6.95;4.13;;;;;;;12.66;100.00;102113.09;6223071;28;20413;-76
2021/09/03 02:21:20;;;;;;;5.90;3.90;;;;;;;12.61;100.00;102117.72;6222784;28;20056;-76
2021/09/03 02:24:23;;;;;;;10.18;3.90;;;;;;;12.57;100.00;102116.13;6222996;28;20137;-76
2021/09/03 02:27:24;;;;;;;10.90;4.70;;;;;;;12.55;100.00;102119.75;6222154;28;20048;-76
2021/09/03 02:30:26;;;;;;;7.65;4.40;;;;;;;12.52;100.00;102119.84;6223057;28;20501;-76
2021/09/03 02:33:28;;;;;;;5.72;3.42;;;;;;;12.43;100.00;102113.16;6222684;28;20137;-76
2021/09/03 02:36:29;;;;;;;8.75;4.25;;;;;;;12.44;100.00;102109.59;6222600;28;20057;-76
2021/09/03 02:39:32;;;;;;;9.63;3.72;;;;;;;12.39;100.00;102101.88;6222810;28;20460;-76
2021/09/03 02:42:33;;;;;;;7.43;3.75;;;;;;;12.35;100.00;102104.69;6222433;28;20046;-76
2021/09/03 02:45:35;;;;;;;9.85;3.50;;;;;;;12.36;100.00;102104.66;6222513;28;20049;-76
2021/09/03 02:48:36;;;;;;;6.95;3.65;;;;;;;12.35;100.00;102096.78;6222462;28;20449;-76
2021/09/03 02:51:37;;;;;;;11.20;3.90;;;;;;;12.31;100.00;102098.69;6222765;28;20050;-76
2021/09/03 02:54:40;;;;;;;8.95;4.00;;;;;;;12.27;100.00;102091.81;6222183;28;20046;-76
2021/09/03 02:57:41;;;;;;;5.78;3.80;;;;;;;12.29;100.00;102094.41;6222456;28;20494;-76
2021/09/03 03:00:43;;;;;;;5.43;3.05;;;;;;;12.22;100.00;102095.53;6222643;28;20057;-75
2021/09/03 03:03:44;;;;;;;7.13;3.97;;;;;;;12.18;100.00;102092.19;6222102;28;20061;-75
2021/09/03 03:06:45;;;;;;;6.18;3.13;;;;;;;12.16;100.00;102099.28;6222400;28;20508;-76
2021/09/03 03:09:48;;;;;;;6.65;3.60;;;;;;;12.10;100.00;102089.84;6222265;28;20053;-76
2021/09/03 03:12:53;;;;;;;5.72;3.50;;;;;;;12.11;100.00;102085.41;6222238;28;20402;-76
2021/09/03 03:15:55;;;;;;;6.82;2.97;;;;;;;12.07;100.00;102083.81;6221776;28;20413;-76
2021/09/03 03:18:56;;;;;;;5.95;3.42;;;;;;;12.04;100.00;102081.31;6222326;28;20054;-76
2021/09/03 03:21:58;;;;;;;5.47;3.70;;;;;;;12.02;100.00;102075.22;6221891;28;20053;-76
2021/09/03 03:25:01;;;;;;;5.38;3.55;;;;;;;11.99;100.00;102073.59;6221836;28;20437;-76
2021/09/03 03:28:02;;;;;;;5.07;3.13;;;;;;;11.98;100.00;102071.84;6222068;28;20049;-75
2021/09/03 03:31:03;;;;;;;4.50;3.10;;;;;;;11.97;100.00;102069.28;6222427;28;20053;-76
2021/09/03 03:34:05;;;;;;;5.53;3.00;;;;;;;11.92;100.00;102072.94;6221811;28;20053;-76
2021/09/03 03:37:06;;;;;;;5.50;3.38;;;;;;;11.94;100.00;102070.25;6221865;28;20053;-76
2021/09/03 03:40:11;;;;;;;4.70;3.17;;;;;;;11.93;100.00;102064.13;6225928;28;20560;-76
2021/09/03 03:43:12;;;;;;;7.05;3.13;;;;;;;11.90;100.00;102058.97;6226522;28;20045;-76
2021/09/03 03:46:13;;;;;;;4.95;3.17;;;;;;;11.87;100.00;102071.41;6226422;28;20417;-76
2021/09/03 03:49:15;;;;;;;7.90;3.88;;;;;;;11.85;100.00;102066.16;6226500;28;20057;-76
2021/09/03 03:52:16;;;;;;;5.25;3.28;;;;;;;11.81;100.00;102056.66;6226329;28;20421;-75
2021/09/03 03:55:19;;;;;;;6.22;3.13;;;;;;;11.81;100.00;102045.25;6226123;28;20057;-76
2021/09/03 03:58:21;;;;;;;5.82;3.35;;;;;;;11.79;100.00;102049.72;6226572;28;20049;-75
2021/09/03 04:01:22;;;;;;;5.70;4.00;;;;;;;11.79;100.00;102041.81;6226139;28;20050;-76
2021/09/03 04:04:23;;;;;;;5.68;3.58;;;;;;;11.78;100.00;102040.09;6226233;28;20050;-76
2021/09/03 04:07:25;;;;;;;6.57;3.50;;;;;;;11.75;100.00;102030.53;6226176;28;20042;-76
2021/09/03 04:10:27;;;;;;;8.02;4.00;;;;;;;11.69;100.00;102029.00;6225978;28;20050;-76
2021/09/03 04:13:29;;;;;;;6.60;3.30;;;;;;;11.65;100.00;102032.66;6222360;28;20042;-75
2021/09/03 04:16:30;;;;;;;6.47;3.47;;;;;;;11.63;100.00;102029.25;6187752;28;20065;-76
2021/09/03 04:19:31;;;;;;;6.57;3.05;;;;;;;11.62;100.00;102031.91;6187662;28;20057;-76
2021/09/03 04:22:33;;;;;;;8.05;3.35;;;;;;;11.62;100.00;102029.28;6194000;28;20050;-76
2021/09/03 04:25:36;;;;;;;8.55;3.78;;;;;;;11.64;100.00;102027.47;6201551;28;20061;-76
2021/09/03 04:28:37;;;;;;;8.90;3.92;;;;;;;11.65;100.00;102034.44;6201269;28;20046;-76
2021/09/03 04:31:38;;;;;;;7.40;4.40;;;;;;;11.68;100.00;102035.19;6201259;28;20057;-76
2021/09/03 04:34:40;;;;;;;7.78;3.92;;;;;;;11.67;100.00;102033.47;6200954;28;20420;-76
2021/09/03 04:37:44;;;;;;;11.50;4.95;;;;;;;11.67;100.00;102028.22;6201255;28;20156;-76
2021/09/03 04:40:47;;;;;;;13.00;4.75;;;;;;;11.67;100.00;102036.09;6201048;28;20223;-75
2021/09/03 04:43:49;;;;;;;10.25;5.30;;;;;;;11.67;100.00;102030.84;6200933;28;20493;-76
2021/09/03 04:46:50;;;;;;;8.15;3.83;;;;;;;11.64;100.00;102030.09;6200935;28;20053;-76
2021/09/03 04:49:51;;;;;;;9.32;4.03;;;;;;;11.64;100.00;102025.69;6199875;28;20054;-76
2021/09/03 04:52:53;;;;;;;11.68;4.35;;;;;;;11.59;100.00;102027.63;6200753;28;20536;-76
2021/09/03 04:55:56;;;;;;;8.07;4.22;;;;;;;11.56;100.00;102027.72;6200602;28;20046;-76
2021/09/03 04:58:57;;;;;;;13.70;5.32;;;;;;;11.53;100.00;102027.84;6200234;28;20058;-76
2021/09/03 05:01:58;;;;;;;9.48;4.43;;;;;;;11.54;100.00;102023.47;6200081;28;20046;-76
2021/09/03 05:05:00;;;;;;;7.65;4.43;;;;;;;11.50;100.00;102027.97;6200428;28;20497;-76
2021/09/03 05:08:01;;;;;;;12.63;5.13;;;;;;;11.50;100.00;102022.72;6200398;28;20054;-76
2021/09/03 05:11:04;;;;;;;11.50;3.75;;;;;;;11.51;100.00;102027.03;6200624;28;20050;-76
2021/09/03 05:14:05;;;;;;;16.55;5.13;;;;;;;11.53;100.00;102025.22;6200047;28;20493;-76
2021/09/03 05:17:06;;;;;;;8.93;4.13;;;;;;;11.54;100.00;102023.47;6200117;28;20053;-76
2021/09/03 05:20:09;;;;;;;14.27;5.10;;;;;;;11.57;100.00;102024.19;6200612;28;20051;-76
2021/09/03 05:23:10;;;;;;;13.15;4.65;;;;;;;11.44;100.00;102022.91;6233201;23;20045;-78
2021/09/03 05:26:13;;;;;;;6.90;4.25;;;;;;;11.46;100.00;102030.78;6225002;28;20505;-79
2021/09/03 05:29:14;;;;;;;7.07;3.88;;;;;;;11.47;100.00;102021.94;6208884;28;20069;-79
2021/09/03 05:32:16;;;;;;;6.88;3.17;;;;;;;11.47;100.00;102019.31;6219094;28;20057;-78
2021/09/03 05:35:17;;;;;;;6.72;3.15;;;;;;;11.44;100.00;102022.91;6211629;28;20050;-78
2021/09/03 05:38:18;;;;;;;7.88;3.85;;;;;;;11.51;100.00;102021.78;6225784;28;20601;-79
2021/09/03 05:41:21;;;;;;;6.60;3.90;;;;;;;11.58;100.00;102032.94;6212415;28;20046;-78
2021/09/03 05:44:22;;;;;;;8.32;4.03;;;;;;;11.62;100.00;102031.91;6213579;28;20050;-78
2021/09/03 05:47:24;;;;;;;11.68;5.75;;;;;;;11.65;100.00;102034.44;6220430;28;20413;-79
2021/09/03 05:50:25;;;;;;;8.88;4.28;;;;;;;11.70;100.00;102032.50;6214741;28;20050;-79
2021/09/03 05:53:26;;;;;;;13.05;5.40;;;;;;;11.74;100.00;102035.88;6220357;28;20054;-78
2021/09/03 05:56:29;;;;;;;11.77;4.93;;;;;;;11.77;100.00;102036.63;6224889;28;20054;-78
2021/09/03 05:59:31;;;;;;;11.30;4.82;;;;;;;11.77;100.00;102030.50;6219225;28;20494;-79
2021/09/03 06:02:32;;;;;;;12.75;5.07;;;;;;;11.86;100.00;102032.81;6203515;28;20461;-78
2021/09/03 06:05:33;;;;;;;8.43;4.43;;;;;;;11.99;100.00;102030.53;6213164;28;20500;-78
2021/09/03 06:08:35;;;;;;;14.27;5.15;;;;;;;12.00;100.00;102035.78;6224752;28;20052;-79
2021/09/03 06:11:38;;;;;;;11.60;5.78;;;;;;;11.94;100.00;102030.72;6224744;28;20057;-78
2021/09/03 06:14:40;;;;;;;15.88;6.22;;;;;;;12.03;100.00;102029.50;6223947;28;20057;-78
2021/09/03 06:17:41;;;;;;;13.70;6.15;;;;;;;12.12;100.00;102030.00;6224330;28;20042;-78
2021/09/03 06:20:42;;;;;;;16.38;5.70;;;;;;;12.12;100.00;102029.16;6224004;28;20061;-79
2021/09/03 06:23:44;;;;;;;14.48;4.38;;;;;;;12.08;100.00;102024.91;6223713;28;20049;-79
2021/09/03 06:26:47;;;;;;;12.05;5.07;;;;;;;12.09;100.00;102027.50;6224286;28;20053;-78
2021/09/03 06:29:48;;;;;;;11.55;4.93;;;;;;;12.12;100.00;102019.47;6212714;28;20054;-79
2021/09/03 06:32:49;;;;;;;9.90;4.95;;;;;;;12.20;100.00;102029.72;6214656;28;20042;-79
2021/09/03 06:35:51;;;;;;;12.93;5.85;;;;;;;12.24;100.00;102033.09;6215098;28;20438;-79
2021/09/03 06:38:52;;;;;;;8.45;3.60;;;;;;;12.28;100.00;102040.81;6207423;28;20046;-79
2021/09/03 06:41:55;;;;;;;11.32;4.60;;;;;;;12.35;100.00;102044.94;6199497;28;20050;-78
2021/09/03 06:44:58;;;;;;;12.10;4.82;;;;;;;12.28;100.00;102032.06;6199049;28;20054;-79
2021/09/03 06:47:59;;;;;;;8.52;3.70;;;;;;;12.35;100.00;102033.50;6207669;28;20050;-78
2021/09/03 06:51:01;;;;;;;7.22;3.95;;;;;;;12.41;100.00;102028.88;6223279;28;20413;-79
2021/09/03 06:54:02;;;;;;;6.72;4.05;;;;;;;12.49;100.00;102028.56;6223361;28;20057;-79
2021/09/03 06:57:05;;;;;;;5.70;3.25;;;;;;;12.57;100.00;102026.44;6223147;28;20053;-79
2021/09/03 07:00:09;;;;;;;6.40;3.90;;;;;;;12.63;100.00;102020.09;6223732;28;20412;-79
2021/09/03 07:03:10;;;;;;;7.05;3.67;;;;;;;12.66;100.00;102015.53;6221236;28;20054;-79
2021/09/03 07:06:11;;;;;;;5.40;3.92;;;;;;;12.73;100.00;102020.56;6216899;28;20056;-79
2021/09/03 07:09:13;;;;;;;6.47;3.25;;;;;;;12.79;100.00;102007.94;6223016;28;20045;-79
2021/09/03 07:12:15;;;;;;;7.60;3.72;;;;;;;12.87;100.00;102010.28;6222619;28;20421;-78
2021/09/03 07:15:17;;;;;;;6.53;3.38;;;;;;;12.97;100.00;102013.38;6222193;28;20065;-79
2021/09/03 07:18:18;;;;;;;7.20;3.53;;;;;;;13.04;100.00;101999.00;6223052;28;20057;-79
2021/09/03 07:21:20;;;;;;;4.20;3.30;;;;;;;13.11;100.00;102003.94;6222850;28;20416;-79
2021/09/03 07:24:21;;;;;;;6.78;3.90;;;;;;;13.20;100.00;102003.53;6222382;28;20049;-78
2021/09/03 07:27:24;;;;;;;6.80;4.03;;;;;;;13.28;100.00;102002.38;6222709;28;20054;-79
2021/09/03 07:30:25;;;;;;;7.72;4.03;;;;;;;13.35;100.00;101995.88;6222883;28;20057;-79
2021/09/03 07:33:26;;;;;;;9.50;4.03;;;;;;;13.45;100.00;102002.47;6222249;28;20069;-79
2021/09/03 07:36:28;;;;;;;8.65;4.35;;;;;;;13.54;100.00;101999.41;6222780;28;20508;-79
2021/09/03 07:39:29;;;;;;;6.95;4.28;;;;;;;13.73;100.00;101999.44;6222864;28;20494;-79
2021/09/03 07:42:33;;;;;;;10.73;5.05;;;;;;;13.77;100.00;102002.78;6222612;28;20049;-79
2021/09/03 07:45:35;;;;;;;8.63;4.50;;;;;;;13.83;100.00;102008.63;6222837;28;20055;-79
2021/09/03 07:48:36;;;;;;;12.00;4.38;;;;;;;13.92;100.00;102013.47;6222460;28;20057;-79
2021/09/03 07:51:38;;;;;;;9.45;4.35;;;;;;;13.99;100.00;102005.25;6206982;28;20043;-79
2021/09/03 07:54:39;;;;;;;10.07;4.55;;;;;;;14.07;100.00;102000.47;6191232;28;20095;-78
2021/09/03 07:57:42;;;;;;;14.55;5.18;;;;;;;14.25;100.00;102006.66;6199694;28;20053;-78
2021/09/03 08:00:44;;;;;;;12.30;5.10;;;;;;;14.36;100.00;102004.34;6206054;28;20418;-78
2021/09/03 08:03:45;;;;;;;7.72;4.90;;;;;;;14.40;100.00;102006.78;6197743;28;20050;-78
2021/09/03 08:06:46;;;;;;;10.32;4.85;;;;;;;14.52;100.00;102002.69;6199345;28;20050;-79
2021/09/03 08:09:48;;;;;;;11.68;4.88;;;;;;;14.58;100.00;102007.69;6213526;28;20038;-79
2021/09/03 08:12:50;;;;;;;9.93;4.97;;;;;;;14.59;100.00;101992.66;6209428;28;20530;-78
2021/09/03 08:15:52;;;;;;;13.32;5.60;;;;;;;14.60;100.00;101997.88;6221777;28;20050;-78
2021/09/03 08:18:53;;;;;;;9.48;5.00;;;;;;;14.66;100.00;101994.91;6213774;28;20046;-79
2021/09/03 08:21:54;;;;;;;10.65;5.40;;;;;;;14.87;100.00;102002.72;6206430;28;20050;-78
2021/09/03 08:24:56;;;;;;;12.77;5.60;;;;;;;14.98;100.00;101987.97;6214477;28;20053;-79
2021/09/03 08:27:58;;;;;;;10.00;4.78;;;;;;;15.21;100.00;101986.78;6220888;28;20053;-80
2021/09/03 08:31:00;;;;;;;13.52;5.68;;;;;;;15.25;100.00;101990.09;6202462;28;20046;-78
2021/09/03 08:34:01;;;;;;;9.48;4.63;;;;;;;15.33;100.00;101993.22;6210848;28;20416;-79
2021/09/03 08:37:03;;;;;;;12.60;5.47;;;;;;;15.31;100.00;101991.59;6219163;28;20057;-78
2021/09/03 08:40:05;;;;;;;11.75;5.68;;;;;;;15.23;100.00;101990.19;6226190;28;20046;-80
2021/09/03 08:43:08;;;;;;;12.32;5.65;;;;;;;15.34;100.00;101988.75;6223699;28;20516;-81
2021/09/03 08:46:10;;;;;;;9.68;5.25;;;;;;;15.31;100.00;101992.44;6220004;28;20046;-79
2021/09/03 08:49:12;;;;;;;13.38;6.45;;;;;;;15.37;100.00;101986.81;6226557;28;20052;-79
2021/09/03 08:52:13;;;;;;;12.90;5.68;;;;;;;15.51;100.00;101986.06;6226394;28;20053;-80
2021/09/03 08:55:16;;;;;;;15.15;5.72;;;;;;;15.51;100.00;101985.22;6226353;28;20046;-79
2021/09/03 08:58:19;;;;;;;12.60;5.63;;;;;;;15.57;100.00;101990.16;6226095;28;20052;-78
2021/09/03 09:01:20;;;;;;;9.90;5.93;;;;;;;15.65;100.00;101988.84;6221059;28;20540;-78
2021/09/03 09:04:22;;;;;;;12.43;5.80;;;;;;;15.93;100.00;101993.47;6220495;28;20050;-78
2021/09/03 09:07:26;;;;;;;15.50;5.50;;;;;;;15.87;100.00;101983.22;6225812;28;20069;-78
2021/09/03 09:10:27;;;;;;;10.55;4.97;;;;;;;15.81;100.00;101991.53;6215570;28;20107;-80
2021/09/03 09:13:32;;;;;;;11.77;4.93;;;;;;;16.04;100.00;101987.59;6216144;28;20042;-81
2021/09/03 09:16:34;;;;;;;12.52;5.72;;;;;;;15.94;100.00;101995.22;6217791;28;20060;-81
2021/09/03 09:19:46;;;;;;;8.85;4.53;;;;;;;15.91;100.00;101987.41;6225980;28;20061;-80
2021/09/03 09:22:53;;;;;;;10.85;5.13;;;;;;;15.95;100.00;101982.81;6223759;28;20117;-80
2021/09/03 09:25:58;;;;;;;14.77;5.93;;;;;;;15.91;100.00;101990.06;6212392;28;20053;-78
2021/09/03 09:29:13;;;;;;;10.93;5.10;;;;;;;15.91;100.00;101981.25;6210423;28;20046;-80
2021/09/03 09:32:14;;;;;;;14.15;5.60;;;;;;;15.92;100.00;101975.84;6217467;28;20566;-80
2021/09/03 09:35:19;;;;;;;11.13;5.88;;;;;;;16.15;100.00;101987.81;6217045;28;20062;-79
2021/09/03 09:38:23;;;;;;;12.20;5.85;;;;;;;16.29;100.00;101983.53;6225300;28;20041;-81
2021/09/03 09:41:25;;;;;;;15.10;5.57;;;;;;;16.37;100.00;101973.34;6226030;28;20045;-78
2021/09/03 09:44:32;;;;;;;12.85;5.38;;;;;;;16.52;100.00;101968.91;6225329;28;20053;-79
2021/09/03 09:47:35;;;;;;;12.32;4.57;;;;;;;16.52;99.89;101966.25;6225097;28;20054;-78
2021/09/03 09:50:36;;;;;;;10.25;5.35;;;;;;;16.66;96.53;101956.53;6216436;28;20045;-78
2021/09/03 09:53:38;;;;;;;10.65;5.32;;;;;;;16.49;99.60;101962.00;6224656;28;20062;-78
2021/09/03 09:56:40;;;;;;;10.18;4.97;;;;;;;16.50;100.00;101961.06;6225429;28;20050;-78
2021/09/03 09:59:43;;;;;;;11.65;5.15;;;;;;;16.56;99.83;101947.41;6224756;28;20359;-78
2021/09/03 10:02:45;;;;;;;12.38;5.13;;;;;;;16.77;96.97;101947.97;6227231;28;20049;-79
2021/09/03 10:05:46;;;;;;;12.10;6.32;;;;;;;16.81;97.63;101951.31;6229833;28;20049;-79
2021/09/03 10:08:49;;;;;;;9.30;4.80;;;;;;;16.70;98.52;101946.59;6227410;28;20165;-78
2021/09/03 10:11:52;;;;;;;10.25;4.85;;;;;;;16.81;99.15;101946.00;6227605;28;20096;-78
2021/09/03 10:14:54;;;;;;;10.00;5.13;;;;;;;17.12;96.44;101944.97;6227780;28;20046;-79
2021/09/03 10:17:56;;;;;;;11.40;5.82;;;;;;;17.21;93.27;101939.97;6233443;28;20053;-80
2021/09/03 10:20:58;;;;;;;11.35;5.18;;;;;;;17.07;95.89;101939.06;6230832;28;20065;-79
2021/09/03 10:24:06;;;;;;;6.80;3.65;;;;;;;17.06;95.34;101935.56;6226941;28;20060;-79
2021/09/03 10:27:08;;;;;;;12.65;4.55;;;;;;;17.11;97.60;101935.28;6222822;28;20062;-80
2021/09/03 10:30:16;;;;;;;8.93;4.20;;;;;;;17.13;96.43;101933.41;6217560;28;20042;-79
2021/09/03 10:33:17;;;;;;;10.45;4.28;;;;;;;17.24;95.33;101934.44;6205969;28;20042;-80
2021/09/03 10:36:56;;;;;;;8.98;4.00;;;;;;;17.33;95.44;101927.69;6204723;28;20054;-80
2021/09/03 10:40:03;;;;;;;10.98;5.38;;;;;;;17.45;92.91;101928.72;6217755;28;20398;-79
2021/09/03 10:43:05;;;;;;;8.23;4.15;;;;;;;17.50;91.80;101923.97;6218947;28;20429;-80
2021/09/03 10:46:08;;;;;;;7.03;3.83;;;;;;;17.47;92.01;101917.03;6229436;28;20045;-79
2021/09/03 10:49:10;;;;;;;9.88;4.18;;;;;;;17.50;95.90;101918.66;6211157;28;20045;-79
2021/09/03 10:52:12;;;;;;;9.38;4.55;;;;;;;17.69;92.27;101908.53;6202409;28;20141;-78
2021/09/03 10:55:15;;;;;;;10.02;3.80;;;;;;;17.86;92.45;101901.31;6209789;28;20057;-79
2021/09/03 10:58:32;;;;;;;10.30;3.78;;;;;;;17.82;90.06;101902.47;6211635;28;20053;-79
2021/09/03 11:01:38;;;;;;;8.15;3.53;;;;;;;17.85;92.14;101892.50;6210059;28;20050;-79
2021/09/03 11:04:45;;;;;;;8.13;4.15;;;;;;;18.10;92.13;101891.69;6209581;28;20127;-79
2021/09/03 11:07:47;;;;;;;9.50;4.47;;;;;;;18.31;89.62;101883.25;6222321;28;20056;-79
2021/09/03 11:10:48;;;;;;;8.05;4.05;;;;;;;18.42;88.86;101886.03;6223964;28;20425;-78
2021/09/03 11:13:51;;;;;;;8.48;3.38;;;;;;;18.51;89.54;101877.41;6222743;28;20050;-79
2021/09/03 11:16:57;;;;;;;10.48;4.13;;;;;;;18.68;86.80;101870.91;6223709;28;20137;-79
2021/09/03 11:20:00;;;;;;;6.70;3.67;;;;;;;18.96;85.73;101870.72;6223267;28;20077;-79
2021/09/03 11:23:07;;;;;;;7.60;3.70;;;;;;;19.04;86.07;101864.84;6223709;28;20050;-79
2021/09/03 11:26:17;;;;;;;10.20;4.68;;;;;;;19.18;83.45;101867.38;6223198;28;20077;-79
2021/09/03 11:29:24;;;;;;;8.10;3.78;;;;;;;19.38;86.18;101868.59;6223579;28;20057;-79
2021/09/03 11:32:29;;;;;;;6.70;3.58;;;;;;;19.76;79.92;101870.31;6223266;28;20057;-79
2021/09/03 11:35:32;;;;;;;8.85;3.40;;;;;;;19.73;81.44;101868.72;6223081;28;20054;-79
2021/09/03 11:38:33;;;;;;;10.30;3.63;;;;;;;19.98;83.36;101867.75;6245283;23;20045;-76
2021/09/03 11:41:36;;;;;;;7.03;3.65;;;;;;;20.28;75.81;101867.22;6206967;28;20061;-77
2021/09/03 11:44:48;;;;;;;8.57;3.88;;;;;;;20.09;76.18;101866.94;6216330;28;20064;-77
2021/09/03 11:47:53;;;;;;;7.35;3.00;;;;;;;20.24;77.66;101863.06;6215720;28;20061;-78
2021/09/03 11:50:58;;;;;;;11.30;6.47;;;;;;;20.43;73.99;101862.50;6215466;28;20049;-75
2021/09/03 11:54:01;;;;;;;12.25;4.90;;;;;;;20.48;75.33;101859.53;6206378;28;20080;-78
2021/09/03 11:57:02;;;;;;;6.55;3.63;;;;;;;20.48;74.09;101854.19;6218283;28;20054;-78
2021/09/03 12:00:05;;;;;;;6.32;3.35;;;;;;;20.62;76.02;101855.78;6214420;28;20053;-78
2021/09/03 12:03:10;;;;;;;6.93;3.38;;;;;;;20.86;71.00;101851.19;6220350;28;20046;-78
2021/09/03 12:06:16;;;;;;;5.40;2.97;;;;;;;20.73;71.80;101847.78;6226291;28;20428;-78
2021/09/03 12:09:33;;;;;;;8.00;2.97;;;;;;;20.88;72.58;101843.03;6227259;28;20053;-78
2021/09/03 12:12:35;;;;;;;7.18;3.65;;;;;;;21.04;72.58;101848.88;6226990;28;20054;-79
2021/09/03 12:15:36;;;;;;;7.35;3.72;;;;;;;21.10;73.32;101839.50;6226774;28;20054;-79
2021/09/03 12:18:40;;;;;;;9.15;3.55;;;;;;;21.26;74.09;101845.34;6227929;28;20050;-79
2021/09/03 12:21:43;;;;;;;7.75;2.88;;;;;;;21.41;72.28;101841.44;6227724;28;20045;-79
2021/09/03 12:24:49;;;;;;;6.20;3.05;;;;;;;21.61;69.04;101834.44;6227177;28;20054;-80
2021/09/03 12:28:10;;;;;;;5.13;3.00;;;;;;;21.44;70.96;101840.34;6227401;28;20054;-79
2021/09/03 12:31:15;;;;;;;4.65;2.67;;;;;;;21.55;72.09;101836.78;6227181;28;20529;-77
2021/09/03 12:34:18;;;;;;;7.60;3.45;;;;;;;21.78;69.93;101827.69;6226784;28;20050;-77
2021/09/03 12:37:19;;;;;;;7.63;3.28;;;;;;;21.91;72.04;101833.72;6208825;28;20050;-76
2021/09/03 12:40:21;;;;;;;6.03;2.95;;;;;;;22.11;70.58;101828.50;6200946;28;20047;-76
2021/09/03 12:43:30;;;;;;;8.20;2.88;;;;;;;22.12;67.08;101823.06;6200957;28;20054;-77
2021/09/03 12:46:37;;;;;;;6.15;2.92;;;;;;;22.15;69.14;101812.06;6201222;28;20057;-76
2021/09/03 12:49:41;;;;;;;8.50;3.58;;;;;;;22.22;65.75;101807.06;6200858;28;20505;-76
2021/09/03 12:52:42;;;;;;;4.07;2.28;;;;;;;22.07;68.21;101808.31;6200942;28;20413;-76
2021/09/03 12:55:44;;;;;;;4.13;2.55;;;;;;;22.17;66.03;101810.13;6200487;28;20046;-76
2021/09/03 12:58:45;;;;;;;4.07;2.15;;;;;;;22.39;67.07;101809.13;6201833;28;20054;-77
2021/09/03 13:01:47;;;;;;;7.15;2.78;;;;;;;22.55;63.83;101803.28;6203426;28;20058;-78
2021/09/03 13:04:50;;;;;;;5.05;2.83;;;;;;;22.46;64.20;101806.75;6205235;28;20512;-78
2021/09/03 13:07:52;;;;;;;6.70;2.58;;;;;;;22.42;67.67;101803.47;6203914;28;20062;-77
2021/09/03 13:10:54;;;;;;;9.45;2.67;;;;;;;22.57;67.27;101806.66;6202266;28;20395;-77
2021/09/03 13:13:55;;;;;;;8.23;3.42;;;;;;;22.48;64.64;101799.41;6202997;28;20057;-77
2021/09/03 13:16:58;;;;;;;4.32;2.28;;;;;;;22.47;63.55;101797.72;6203919;28;20490;-78
2021/09/03 13:20:01;;;;;;;5.80;2.47;;;;;;;22.19;67.27;101789.41;6203770;28;20057;-77
2021/09/03 13:23:03;;;;;;;4.30;2.55;;;;;;;22.56;63.63;101788.88;6202696;28;20054;-77
2021/09/03 13:26:05;;;;;;;7.20;2.25;;;;;;;22.46;62.57;101783.50;6206091;28;20053;-78
2021/09/03 13:29:07;;;;;;;4.78;2.45;;;;;;;22.63;62.24;101783.84;6203020;28;20421;-77
2021/09/03 13:32:09;;;;;;;5.60;2.50;;;;;;;22.65;65.15;101781.88;6203843;28;20061;-78
2021/09/03 13:35:12;;;;;;;6.07;2.95;;;;;;;22.78;62.38;101771.78;6203580;28;20513;-78
2021/09/03 13:38:13;;;;;;;9.55;4.00;;;;;;;22.80;60.04;101769.81;6203934;28;20061;-78
2021/09/03 13:41:15;;;;;;;5.68;2.67;;;;;;;22.66;61.53;101762.13;6203646;28;20069;-78
2021/09/03 13:44:16;;;;;;;5.07;2.78;;;;;;;22.68;62.67;101762.84;6204089;28;20053;-78
2021/09/03 13:47:19;;;;;;;5.05;2.67;;;;;;;22.82;61.49;101753.59;6203297;28;20050;-78
2021/09/03 13:50:21;;;;;;;5.28;2.80;;;;;;;22.65;63.63;101749.72;6203546;28;20050;-77
2021/09/03 13:53:23;;;;;;;4.53;2.17;;;;;;;22.66;64.26;101748.72;6205370;28;20050;-76
2021/09/03 13:56:24;;;;;;;8.43;2.42;;;;;;;22.43;63.13;101750.75;6202818;28;20054;-79
2021/09/03 13:59:26;;;;;;;5.97;2.17;;;;;;;22.69;64.12;101743.94;6205023;28;20042;-77